Amsterdam — PBAD — position and weather

sailwx.info

Track history (hours):
 
Tides and Currents Weather Stations Pressure Air Temp Water Temp Dewpoint Dewpoint Depression Visibility Wind Speed Wind Dir Waves Ship Positions

Amsterdam

Operator: Holland America Line

Last reported at 2019-Jun-16 23:30 UTC. Time now 2019-Jun-17 18:40 UTC.
Position N 48°25' W 123°23'.

Type: Ship. MMSI: 244370000.

Date/timePositionNaut miles runAvg speedWind from/ knotsBaromVisibWave heightAir tempDewpointWater temp
2019-Jun-16 23:30N 48°25' W 123°23'0 0.0
2019-Jun-16 22:59N 48°25' W 123°23'0 0.0
2019-Jun-16 22:29N 48°25' W 123°23'0 0.0
2019-Jun-16 21:59N 48°25' W 123°23'0 0.0
2019-Jun-16 21:29N 48°25' W 123°23'0 0.0
2019-Jun-16 21:00N 48°25' W 123°23'0 0.0
2019-Jun-16 20:30N 48°25' W 123°23'0 0.0
2019-Jun-16 19:59N 48°25' W 123°23'0 0.8
2019-Jun-16 19:31N 48°25' W 123°24'5 9.8
2019-Jun-16 19:00N 48°20' W 123°24'1515.8
2019-Jun-16 18:02N 48°14' W 123°45'119.2
2019-Jun-16 17:59N 48°14' W 123°47'918.5
2019-Jun-16 17:30N 48°15' W 123°59'1019.2
2019-Jun-16 17:00N 48°19' W 124°13'918.3
2019-Jun-16 16:30N 48°23' W 124°25'715.2
2019-Jun-16 16:00N 48°26' W 124°35'713.6
2019-Jun-16 15:30N 48°29' W 124°45'714.1
2019-Jun-16 15:00N 48°29' W 124°56'715.0
2019-Jun-16 14:30N 48°28' W 125°07'815.3
2019-Jun-16 14:00N 48°31' W 125°18'918.5
2019-Jun-16 13:30N 48°36' W 125°30'918.7
2019-Jun-16 13:00N 48°41' W 125°42'918.7
2019-Jun-16 12:30N 48°46' W 125°54'918.6
2019-Jun-16 12:00N 48°51' W 126°05'918.8
2019-Jun-16 11:30N 48°57' W 126°17'918.7
2019-Jun-16 11:00N 49°03' W 126°28'918.3
2019-Jun-16 10:30N 49°08' W 126°40'11318.1
2019-Jun-16 04:14N 50°21' W 128°54'417.5
2019-Jun-16 03:58N 50°24' W 128°59'2017.2
2019-Jun-16 02:47N 50°38' W 129°22'1316.7
2019-Jun-16 02:00N 50°48' W 129°36'9018.1 210 / 141018.4 1.1 14.012.213.0
2019-Jun-15 21:00N 51°48' W 131°24'27717.3 150 / 241017.3 5.4 15.013.213.0
2019-Jun-15 05:00N 55°54' W 135°00'224 9.3 160 / 131018.110.8 12.010.113.8
2019-Jun-14 05:00N 58°54' W 139°06'28712.5 270 / 51017.510.8 12.5 9.614.0
2019-Jun-13 06:00N 58°18' W 148°12'   090 / 141012.4 5.4 11.011.012.0
2019-Jun-10 05:00N 59°06' W 152°00'43117.3 340 / 71021.010.8 11.0 9.012.0
2019-Jun-09 04:00N 58°42' W 138°06'6216.5 210 / 41024.010.8 11.0 9.012.5
2019-Jun-09 00:15N 58°18' W 136°17'417.1
2019-Jun-09 00:01N 58°19' W 136°10'815.1
2019-Jun-08 23:30N 58°19' W 135°56'815.9
2019-Jun-08 23:00N 58°17' W 135°41'1016.6
2019-Jun-08 22:25N 58°12' W 135°25'4 0.5
2019-Jun-08 14:48N 58°08' W 135°28'1 3.4
2019-Jun-08 14:30N 58°09' W 135°27'4 6.7
2019-Jun-08 13:57N 58°09' W 135°20'30 3.1
2019-Jun-08 04:00N 58°18' W 134°24'   300 / 91016.9 18.410.911.0
Track history (hours):
 
Tides and Currents Weather Stations Pressure Air Temp Water Temp Dewpoint Dewpoint Depression Visibility Wind Speed Wind Dir Waves Ship Positions

Amsterdam

Operator: Holland America Line

Last reported at 2019-Jun-16 23:30 UTC. Time now 2019-Jun-17 18:40 UTC.
Position N 48°25' W 123°23'.

Type: Ship. MMSI: 244370000.

Date/timePositionNaut miles runAvg speedWind from/ knotsBaromVisibWave heightAir tempDewpointWater temp
2019-Jun-16 23:30N 48°25' W 123°23'0 0.0
2019-Jun-16 22:59N 48°25' W 123°23'0 0.0
2019-Jun-16 22:29N 48°25' W 123°23'0 0.0
2019-Jun-16 21:59N 48°25' W 123°23'0 0.0
2019-Jun-16 21:29N 48°25' W 123°23'0 0.0
2019-Jun-16 21:00N 48°25' W 123°23'0 0.0
2019-Jun-16 20:30N 48°25' W 123°23'0 0.0
2019-Jun-16 19:59N 48°25' W 123°23'0 0.8
2019-Jun-16 19:31N 48°25' W 123°24'5 9.8
2019-Jun-16 19:00N 48°20' W 123°24'1515.8
2019-Jun-16 18:02N 48°14' W 123°45'119.2
2019-Jun-16 17:59N 48°14' W 123°47'918.5
2019-Jun-16 17:30N 48°15' W 123°59'1019.2
2019-Jun-16 17:00N 48°19' W 124°13'918.3
2019-Jun-16 16:30N 48°23' W 124°25'715.2
2019-Jun-16 16:00N 48°26' W 124°35'713.6
2019-Jun-16 15:30N 48°29' W 124°45'714.1
2019-Jun-16 15:00N 48°29' W 124°56'715.0
2019-Jun-16 14:30N 48°28' W 125°07'815.3
2019-Jun-16 14:00N 48°31' W 125°18'918.5
2019-Jun-16 13:30N 48°36' W 125°30'918.7
2019-Jun-16 13:00N 48°41' W 125°42'918.7
2019-Jun-16 12:30N 48°46' W 125°54'918.6
2019-Jun-16 12:00N 48°51' W 126°05'918.8
2019-Jun-16 11:30N 48°57' W 126°17'918.7
2019-Jun-16 11:00N 49°03' W 126°28'918.3
2019-Jun-16 10:30N 49°08' W 126°40'11318.1
2019-Jun-16 04:14N 50°21' W 128°54'417.5
2019-Jun-16 03:58N 50°24' W 128°59'2017.2
2019-Jun-16 02:47N 50°38' W 129°22'1316.7
2019-Jun-16 02:00N 50°48' W 129°36'9018.1 210 / 141018.4 1.1 14.012.213.0
2019-Jun-15 21:00N 51°48' W 131°24'27717.3 150 / 241017.3 5.4 15.013.213.0
2019-Jun-15 05:00N 55°54' W 135°00'224 9.3 160 / 131018.110.8 12.010.113.8
2019-Jun-14 05:00N 58°54' W 139°06'28712.5 270 / 51017.510.8 12.5 9.614.0
2019-Jun-13 06:00N 58°18' W 148°12'   090 / 141012.4 5.4 11.011.012.0
2019-Jun-10 05:00N 59°06' W 152°00'43117.3 340 / 71021.010.8 11.0 9.012.0
2019-Jun-09 04:00N 58°42' W 138°06'6216.5 210 / 41024.010.8 11.0 9.012.5
2019-Jun-09 00:15N 58°18' W 136°17'417.1
2019-Jun-09 00:01N 58°19' W 136°10'815.1
2019-Jun-08 23:30N 58°19' W 135°56'815.9
2019-Jun-08 23:00N 58°17' W 135°41'1016.6
2019-Jun-08 22:25N 58°12' W 135°25'4 0.5
2019-Jun-08 14:48N 58°08' W 135°28'1 3.4
2019-Jun-08 14:30N 58°09' W 135°27'4 6.7
2019-Jun-08 13:57N 58°09' W 135°20'30 3.1
2019-Jun-08 04:00N 58°18' W 134°24'   300 / 91016.9 18.410.911.0

Dump ship's entire track history